Time;durP1;ratioP1;P1;durP2;ratioP2;P2;SDS_P1;SDS_P2;PMS_P1;PMS_P2;Temp;Humidity;BMP_temperature;BMP_pressure;BME280_temperature;BME280_humidity;BME280_pressure;Samples;Min_cycle;Max_cycle;Signal;HPM_P1;HPM_P2
2022/06/18 00:00:42;;;;;;;1.80;1.70;;;18.60;90.80;;;;;;4318037;28;10001460;-74
2022/06/18 00:03:09;;;;;;;1.73;1.42;;;18.60;91.10;;;;;;5001196;28;20129;-74
2022/06/18 00:05:36;;;;;;;4.13;1.50;;;18.60;91.50;;;;;;4993264;28;20022;-73
2022/06/18 00:08:05;;;;;;;2.50;1.63;;;18.60;92.70;;;;;;4995455;28;20518;-73
2022/06/18 00:10:31;;;;;;;2.60;1.52;;;18.50;93.40;;;;;;4982560;28;20624;-73
2022/06/18 00:15:58;;;;;;;2.00;1.42;;;18.50;93.90;;;;;;5010356;28;20401;-74
2022/06/18 00:18:24;;;;;;;2.65;1.35;;;18.40;94.10;;;;;;4993070;28;20479;-73
2022/06/18 00:20:50;;;;;;;1.65;1.55;;;18.40;94.60;;;;;;5003646;28;20017;-74
2022/06/18 00:23:17;;;;;;;2.00;1.50;;;18.30;94.90;;;;;;5003175;28;20407;-74
2022/06/18 00:25:52;;;;;;;1.45;1.35;;;18.30;94.90;;;;;;4994337;28;20109;-74
2022/06/18 00:28:26;;;;;;;1.60;1.50;;;18.20;95.20;;;;;;4991776;28;20560;-74
2022/06/18 00:30:53;;;;;;;1.63;1.52;;;18.20;95.40;;;;;;4989792;28;20022;-73
2022/06/18 00:33:20;;;;;;;1.77;1.50;;;18.20;95.80;;;;;;5000919;28;20886;-73
2022/06/18 00:35:47;;;;;;;2.35;1.65;;;18.20;97.50;;;;;;5025134;28;20048;-73
2022/06/18 00:38:21;;;;;;;1.60;1.50;;;18.10;98.60;;;;;;5013918;28;20030;-73
2022/06/18 00:40:47;;;;;;;1.80;1.70;;;18.10;98.90;;;;;;5022562;28;20025;-73
2022/06/18 00:43:21;;;;;;;2.17;1.63;;;18.10;98.40;;;;;;5018029;28;20456;-73
2022/06/18 00:45:50;;;;;;;2.53;1.60;;;18.00;97.80;;;;;;5022680;28;20043;-73
2022/06/18 00:48:32;;;;;;;2.05;1.88;;;18.00;98.40;;;;;;5021517;28;20052;-73
2022/06/18 00:51:14;;;;;;;4.47;1.73;;;18.00;98.60;;;;;;5028195;28;20725;-73
2022/06/18 00:53:47;;;;;;;2.00;1.77;;;18.00;98.70;;;;;;5021564;28;20844;-73
2022/06/18 00:56:22;;;;;;;1.85;1.70;;;18.00;98.80;;;;;;5016929;28;20804;-73
2022/06/18 00:58:57;;;;;;;1.95;1.60;;;17.90;99.30;;;;;;5022270;28;20032;-74
2022/06/18 01:01:29;;;;;;;2.08;1.90;;;17.90;99.90;;;;;;5026064;28;20033;-74
2022/06/18 01:03:55;;;;;;;2.45;1.83;;;17.90;99.90;;;;;;5013422;28;20037;-74
2022/06/18 01:06:33;;;;;;;2.58;1.73;;;17.90;99.90;;;;;;5012145;28;20485;-73
2022/06/18 01:09:07;;;;;;;2.45;1.77;;;17.90;99.90;;;;;;5020398;28;20521;-73
2022/06/18 01:11:38;;;;;;;2.75;2.05;;;17.80;99.90;;;;;;5021157;28;20128;-73
2022/06/18 01:14:06;;;;;;;2.95;2.08;;;17.80;99.90;;;;;;5013740;28;20032;-74
2022/06/18 01:16:33;;;;;;;2.92;2.08;;;17.80;99.90;;;;;;5017741;28;20071;-74
2022/06/18 01:19:00;;;;;;;3.50;1.83;;;17.80;99.90;;;;;;5017487;28;20044;-74
2022/06/18 01:21:59;;;;;;;4.15;2.05;;;17.70;99.90;;;;;;5024910;28;20032;-74
2022/06/18 01:24:38;;;;;;;2.00;1.90;;;17.60;99.90;;;;;;5016844;28;20275;-74
2022/06/18 01:27:06;;;;;;;2.80;2.10;;;17.60;99.90;;;;;;5018309;28;20148;-74
2022/06/18 01:29:32;;;;;;;4.05;2.15;;;17.50;99.90;;;;;;5018649;28;20482;-74
2022/06/18 01:31:59;;;;;;;3.15;2.20;;;17.50;99.90;;;;;;5021801;28;20429;-73
2022/06/18 01:34:25;;;;;;;3.15;1.80;;;17.50;99.90;;;;;;5018635;28;20045;-74
2022/06/18 01:36:51;;;;;;;4.38;2.08;;;17.50;99.90;;;;;;5018110;28;21154;-74
2022/06/18 01:39:22;;;;;;;2.25;1.90;;;17.40;99.90;;;;;;5021696;28;20021;-74
2022/06/18 01:41:51;;;;;;;2.15;1.95;;;17.40;99.90;;;;;;5022763;28;20494;-74
2022/06/18 01:44:31;;;;;;;2.03;1.80;;;17.40;99.90;;;;;;5027487;28;20041;-73
2022/06/18 01:47:03;;;;;;;3.75;1.60;;;17.40;99.90;;;;;;5017729;28;21225;-73
2022/06/18 01:49:36;;;;;;;1.83;1.70;;;17.40;99.90;;;;;;5026008;28;20032;-73
2022/06/18 01:52:05;;;;;;;3.80;2.05;;;17.40;99.90;;;;;;5021078;28;20029;-73
2022/06/18 01:54:40;;;;;;;2.60;1.90;;;17.40;99.90;;;;;;5018590;28;20597;-73
2022/06/18 01:57:13;;;;;;;2.13;1.92;;;17.40;99.90;;;;;;5022493;28;20029;-73
2022/06/18 01:59:44;;;;;;;3.25;1.70;;;17.40;99.90;;;;;;5007117;28;20030;-73
2022/06/18 02:02:10;;;;;;;4.95;1.90;;;17.30;99.90;;;;;;5016380;28;20065;-73
2022/06/18 02:04:37;;;;;;;2.85;1.80;;;17.30;99.90;;;;;;5015736;28;20069;-73
2022/06/18 02:07:06;;;;;;;1.65;1.55;;;17.30;99.90;;;;;;5013896;28;20065;-73
2022/06/18 02:09:54;;;;;;;1.88;1.73;;;17.30;99.90;;;;;;5018082;28;20467;-73
2022/06/18 02:12:24;;;;;;;5.97;2.22;;;17.30;99.90;;;;;;5008855;28;20044;-74
2022/06/18 02:14:58;;;;;;;3.38;1.77;;;17.30;99.90;;;;;;5014249;28;20034;-73
2022/06/18 02:17:25;;;;;;;4.38;2.03;;;17.30;99.90;;;;;;5025511;28;20033;-73
2022/06/18 02:19:57;;;;;;;4.30;2.03;;;17.30;99.90;;;;;;5016558;28;20025;-74
2022/06/18 02:22:33;;;;;;;7.70;2.30;;;17.40;99.50;;;;;;5016953;28;20312;-74
2022/06/18 02:24:58;;;;;;;2.80;2.10;;;17.40;99.40;;;;;;5020313;28;20044;-74
2022/06/18 02:27:25;;;;;;;2.83;2.13;;;17.40;99.30;;;;;;5020917;28;20481;-74
2022/06/18 02:29:51;;;;;;;6.88;2.40;;;17.40;99.20;;;;;;5018580;28;20037;-74
2022/06/18 02:32:34;;;;;;;2.80;2.20;;;17.40;99.30;;;;;;5023524;28;20026;-73
2022/06/18 02:35:00;;;;;;;3.88;2.20;;;17.30;99.30;;;;;;5020070;28;20501;-74
2022/06/18 02:37:28;;;;;;;2.55;1.77;;;17.30;99.00;;;;;;5019013;28;20100;-74
2022/06/18 02:40:00;;;;;;;3.45;2.30;;;17.30;98.80;;;;;;5022812;28;20494;-74
2022/06/18 02:42:32;;;;;;;3.57;1.70;;;17.30;98.90;;;;;;5021518;28;20109;-74
2022/06/18 02:44:58;;;;;;;5.15;2.30;;;17.40;98.70;;;;;;5021778;28;20467;-74
2022/06/18 02:47:24;;;;;;;3.13;2.00;;;17.40;98.50;;;;;;5017653;28;20040;-74
2022/06/18 02:50:07;;;;;;;2.63;2.17;;;17.40;98.40;;;;;;5011546;28;20025;-74
2022/06/18 02:52:49;;;;;;;3.35;2.42;;;17.40;98.30;;;;;;5010948;28;20021;-74
2022/06/18 02:55:41;;;;;;;3.33;2.10;;;17.40;98.30;;;;;;5023086;28;20083;-74
2022/06/18 02:58:10;;;;;;;3.25;2.17;;;17.40;98.20;;;;;;5018377;28;20067;-74
2022/06/18 03:00:38;;;;;;;3.33;2.40;;;17.50;98.10;;;;;;5015187;28;20036;-74
2022/06/18 03:03:07;;;;;;;4.38;2.30;;;17.40;98.10;;;;;;5021476;28;20052;-73
2022/06/18 03:05:33;;;;;;;4.20;2.17;;;17.50;98.10;;;;;;5024708;28;20025;-73
2022/06/18 03:07:58;;;;;;;3.80;2.47;;;17.50;98.00;;;;;;5017976;28;20025;-74
2022/06/18 03:13:08;;;;;;;6.38;2.50;;;17.50;98.00;;;;;;5021975;28;20082;-73
2022/06/18 03:15:34;;;;;;;4.65;2.30;;;17.50;98.10;;;;;;5022001;28;20021;-73
2022/06/18 03:18:00;;;;;;;3.95;2.40;;;17.50;98.20;;;;;;5019940;28;20022;-74
2022/06/18 03:20:37;;;;;;;4.55;2.28;;;17.50;98.10;;;;;;5019623;28;20067;-74
2022/06/18 03:23:05;;;;;;;4.38;2.55;;;17.50;98.00;;;;;;5016602;28;20029;-74
2022/06/18 03:25:30;;;;;;;3.78;2.20;;;17.50;98.00;;;;;;5021937;28;20076;-74
2022/06/18 03:27:56;;;;;;;4.07;2.20;;;17.50;97.90;;;;;;5017612;28;20029;-74
2022/06/18 03:30:21;;;;;;;6.25;2.45;;;17.50;97.90;;;;;;5018404;28;20425;-74
2022/06/18 03:32:47;;;;;;;4.50;2.45;;;17.60;97.80;;;;;;5021644;28;20025;-74
2022/06/18 03:35:13;;;;;;;6.07;2.40;;;17.60;98.10;;;;;;5015216;28;20177;-74
2022/06/18 03:37:38;;;;;;;4.35;2.55;;;17.60;97.70;;;;;;5010926;28;20022;-78
2022/06/18 03:40:04;;;;;;;5.53;2.30;;;17.70;97.70;;;;;;5012724;28;20435;-74
2022/06/18 03:42:30;;;;;;;4.22;2.40;;;17.70;97.60;;;;;;5015133;28;20504;-74
2022/06/18 03:44:56;;;;;;;3.25;2.60;;;17.70;97.60;;;;;;5021670;28;20025;-74
2022/06/18 03:47:23;;;;;;;3.42;2.42;;;17.70;97.60;;;;;;5024424;28;20088;-74
2022/06/18 03:49:48;;;;;;;4.40;2.60;;;17.80;97.50;;;;;;5016536;28;20567;-74
2022/06/18 03:52:14;;;;;;;4.40;2.72;;;17.80;97.40;;;;;;5027664;28;20025;-74
2022/06/18 03:54:40;;;;;;;3.95;2.50;;;17.80;97.40;;;;;;5028479;28;20037;-74
2022/06/18 03:57:07;;;;;;;4.75;2.47;;;17.90;97.30;;;;;;5024085;28;20101;-74
2022/06/18 03:59:34;;;;;;;7.13;2.60;;;17.90;97.20;;;;;;5024347;28;20492;-74
2022/06/18 04:01:59;;;;;;;4.97;2.42;;;18.00;97.20;;;;;;5017664;28;20040;-74
2022/06/18 04:04:25;;;;;;;6.70;2.78;;;18.00;97.20;;;;;;5005291;28;20121;-74
2022/06/18 04:06:51;;;;;;;4.97;2.72;;;18.00;97.00;;;;;;5024418;28;20037;-75
2022/06/18 04:09:16;;;;;;;4.38;2.47;;;18.10;97.20;;;;;;5018731;28;20308;-75
2022/06/18 04:11:42;;;;;;;6.88;2.70;;;18.20;97.20;;;;;;5027154;28;20029;-74
2022/06/18 04:14:07;;;;;;;5.70;2.47;;;18.50;96.70;;;;;;5025111;28;20683;-74
2022/06/18 04:16:33;;;;;;;6.50;2.83;;;19.30;95.40;;;;;;5026827;28;20025;-74
2022/06/18 04:18:59;;;;;;;5.00;2.25;;;20.20;93.60;;;;;;5021314;28;20017;-74
2022/06/18 04:21:24;;;;;;;2.95;2.05;;;20.90;91.80;;;;;;5010148;28;20017;-74
2022/06/18 04:23:50;;;;;;;4.03;1.85;;;21.50;90.30;;;;;;5024811;28;20063;-74
2022/06/18 04:26:15;;;;;;;3.58;1.88;;;21.70;88.50;;;;;;5021628;28;20033;-74
2022/06/18 04:28:41;;;;;;;5.78;2.10;;;21.50;87.90;;;;;;5017600;28;20040;-74
2022/06/18 04:31:07;;;;;;;4.05;1.90;;;21.20;88.20;;;;;;5026395;28;20038;-74
2022/06/18 04:33:33;;;;;;;2.42;1.90;;;20.90;89.20;;;;;;5013176;28;20521;-74
2022/06/18 04:35:59;;;;;;;3.42;1.55;;;20.60;90.00;;;;;;5010974;28;20118;-74
2022/06/18 04:38:26;;;;;;;2.33;1.63;;;20.40;90.40;;;;;;5013970;28;20151;-74
2022/06/18 04:40:51;;;;;;;5.55;1.90;;;20.20;90.70;;;;;;5029200;28;20393;-74
2022/06/18 04:43:18;;;;;;;2.55;1.90;;;20.00;90.90;;;;;;5025500;28;20111;-74
2022/06/18 04:45:43;;;;;;;2.72;1.70;;;20.00;91.10;;;;;;5025180;28;20025;-74
2022/06/18 04:48:09;;;;;;;4.32;2.13;;;19.90;91.10;;;;;;5028281;28;20037;-74
2022/06/18 04:50:38;;;;;;;2.28;1.90;;;20.00;91.00;;;;;;5025628;28;20025;-74
2022/06/18 04:53:06;;;;;;;1.98;1.30;;;20.00;90.90;;;;;;5018242;28;20026;-74
2022/06/18 04:55:33;;;;;;;2.53;1.58;;;20.10;91.00;;;;;;5010899;28;20022;-74
2022/06/18 04:57:59;;;;;;;2.28;1.50;;;20.20;90.90;;;;;;5027480;28;20056;-74
2022/06/18 05:00:25;;;;;;;3.42;1.50;;;20.30;90.70;;;;;;5015620;28;20033;-75
2022/06/18 05:02:50;;;;;;;3.13;1.55;;;20.30;90.60;;;;;;5023360;28;20030;-75
2022/06/18 05:05:25;;;;;;;2.10;1.60;;;20.40;90.50;;;;;;5023988;28;20057;-75
2022/06/18 05:07:51;;;;;;;5.50;1.83;;;20.50;90.40;;;;;;5010727;28;20615;-74
2022/06/18 05:10:18;;;;;;;3.65;1.38;;;20.60;90.00;;;;;;5018148;28;20018;-75
2022/06/18 05:12:44;;;;;;;3.17;1.65;;;20.60;89.70;;;;;;5023852;28;20026;-74
2022/06/18 05:15:11;;;;;;;2.38;1.65;;;20.70;89.70;;;;;;5024473;28;20573;-75
2022/06/18 05:17:43;;;;;;;2.72;1.48;;;20.80;89.20;;;;;;5017600;28;20077;-75
2022/06/18 05:20:15;;;;;;;1.77;1.33;;;20.80;88.80;;;;;;5018287;28;20405;-75
2022/06/18 05:22:41;;;;;;;1.85;1.42;;;20.90;88.40;;;;;;5023074;28;20080;-75
2022/06/18 05:25:07;;;;;;;2.67;1.30;;;21.10;87.80;;;;;;5019750;28;20346;-75
2022/06/18 05:27:35;;;;;;;3.30;1.50;;;21.10;87.60;;;;;;5024126;28;20537;-75
2022/06/18 05:30:02;;;;;;;3.60;1.60;;;21.20;87.40;;;;;;5013612;28;20333;-75
2022/06/18 05:32:27;;;;;;;3.83;1.33;;;21.30;86.80;;;;;;5021642;28;20397;-74
2022/06/18 05:34:53;;;;;;;2.55;1.40;;;21.40;86.90;;;;;;5019027;28;20038;-74
2022/06/18 05:37:24;;;;;;;3.85;1.42;;;21.50;86.70;;;;;;5010049;28;20037;-74
2022/06/18 05:39:50;;;;;;;1.52;1.42;;;21.70;86.70;;;;;;5021622;28;20610;-74
2022/06/18 05:42:16;;;;;;;2.00;1.40;;;21.70;86.00;;;;;;5026374;28;20565;-74
2022/06/18 05:44:41;;;;;;;3.30;1.70;;;21.80;86.30;;;;;;5016074;28;20028;-74
2022/06/18 05:47:20;;;;;;;5.65;1.40;;;21.90;86.50;;;;;;5019331;28;20335;-75
2022/06/18 05:49:45;;;;;;;3.60;1.50;;;22.00;86.70;;;;;;5015528;28;20025;-75
2022/06/18 05:52:12;;;;;;;1.88;1.40;;;22.00;87.10;;;;;;5015190;28;20397;-74
2022/06/18 05:54:38;;;;;;;2.72;1.65;;;22.00;86.90;;;;;;5024259;28;20696;-74
2022/06/18 05:57:04;;;;;;;2.28;1.45;;;22.10;87.60;;;;;;5021289;28;20038;-75
2022/06/18 05:59:31;;;;;;;4.45;1.77;;;22.20;88.00;;;;;;5014605;28;20104;-75
2022/06/18 06:01:57;;;;;;;3.00;1.42;;;22.30;87.10;;;;;;5016291;28;20449;-74
2022/06/18 06:04:23;;;;;;;5.65;1.48;;;22.40;87.30;;;;;;5008425;28;20720;-75
2022/06/18 06:06:51;;;;;;;2.08;1.60;;;22.50;87.70;;;;;;5008515;28;20025;-75
2022/06/18 06:11:28;;;;;;;4.20;1.70;;;22.70;86.60;;;;;;5020541;28;20041;-75
2022/06/18 06:12:12;;;;;;;4.72;1.40;;;22.80;85.90;;;;;;5021714;28;20505;-75
2022/06/18 06:14:39;;;;;;;3.22;1.67;;;22.90;85.20;;;;;;5026128;28;20033;-75
2022/06/18 06:17:06;;;;;;;2.25;1.45;;;23.10;84.80;;;;;;5020423;28;20269;-75
2022/06/18 06:19:31;;;;;;;4.57;1.10;;;23.10;83.70;;;;;;5017715;28;20073;-74
2022/06/18 06:21:57;;;;;;;3.08;1.55;;;23.30;83.00;;;;;;5019492;28;20026;-74
2022/06/18 06:24:22;;;;;;;3.17;1.70;;;23.40;92.30;;;;;;5025471;28;20030;-74
2022/06/18 06:26:48;;;;;;;2.08;1.60;;;23.60;99.90;;;;;;5021042;28;20033;-74
2022/06/18 06:29:14;;;;;;;1.77;1.67;;;23.70;98.50;;;;;;5022147;28;20037;-74
2022/06/18 06:31:40;;;;;;;2.33;1.25;;;23.80;92.80;;;;;;5025870;28;20038;-74
2022/06/18 06:34:05;;;;;;;3.17;1.40;;;23.90;92.20;;;;;;5023228;28;20056;-74
2022/06/18 06:36:31;;;;;;;2.65;1.38;;;24.00;91.20;;;;;;5026790;28;20024;-74
2022/06/18 06:38:57;;;;;;;2.35;1.40;;;24.10;93.50;;;;;;5014139;28;20095;-74
2022/06/18 06:41:25;;;;;;;2.28;1.45;;;24.40;92.60;;;;;;5022182;28;20029;-74
2022/06/18 06:43:51;;;;;;;4.97;1.83;;;24.40;90.60;;;;;;5020771;28;20026;-74
2022/06/18 06:46:17;;;;;;;1.70;1.42;;;24.50;91.40;;;;;;5023465;28;20076;-73
2022/06/18 06:48:44;;;;;;;2.83;1.58;;;24.60;93.90;;;;;;5016105;28;20025;-74
2022/06/18 06:51:19;;;;;;;4.32;1.55;;;24.80;76.80;;;;;;5019248;28;20033;-74
2022/06/18 06:53:45;;;;;;;1.50;1.30;;;24.80;77.30;;;;;;5020882;28;20034;-74
2022/06/18 06:58:56;;;;;;;1.60;1.50;;;25.10;78.40;;;;;;5017615;28;20121;-73
2022/06/18 07:01:22;;;;;;;2.13;1.45;;;25.30;77.00;;;;;;5020100;28;20109;-73
2022/06/18 07:03:48;;;;;;;1.20;1.10;;;25.40;76.10;;;;;;5018450;28;20466;-74
2022/06/18 07:06:16;;;;;;;3.15;1.13;;;25.50;75.10;;;;;;5022896;28;20033;-74
2022/06/18 07:08:42;;;;;;;2.72;1.60;;;25.70;75.30;;;;;;5015866;28;20033;-74
2022/06/18 07:11:07;;;;;;;2.03;1.60;;;25.80;74.70;;;;;;5013711;28;20044;-73
2022/06/18 07:13:33;;;;;;;2.55;1.60;;;25.90;74.50;;;;;;5021333;28;20350;-74
2022/06/18 07:15:59;;;;;;;6.82;1.70;;;26.00;73.10;;;;;;5021271;28;20050;-74
2022/06/18 07:18:31;;;;;;;3.30;1.40;;;26.10;74.00;;;;;;5012100;28;20108;-74
2022/06/18 07:20:57;;;;;;;3.60;1.70;;;26.20;73.10;;;;;;5015461;28;20124;-74
2022/06/18 07:23:23;;;;;;;3.97;1.42;;;26.30;73.60;;;;;;5020844;28;20034;-74
2022/06/18 07:25:48;;;;;;;1.98;1.35;;;26.30;72.40;;;;;;5018088;28;20148;-74
2022/06/18 07:28:14;;;;;;;3.08;1.33;;;26.40;72.60;;;;;;5024249;28;20031;-74
2022/06/18 07:30:40;;;;;;;2.83;1.50;;;26.60;72.90;;;;;;5025731;28;20053;-75
2022/06/18 07:33:07;;;;;;;4.88;1.67;;;26.70;71.60;;;;;;5014508;28;20134;-74
2022/06/18 07:35:34;;;;;;;2.08;1.27;;;26.80;71.90;;;;;;5026597;28;20034;-74
2022/06/18 07:38:00;;;;;;;3.78;1.33;;;26.90;70.80;;;;;;5019251;28;20029;-75
2022/06/18 07:40:31;;;;;;;2.50;1.60;;;27.00;71.30;;;;;;5026076;28;20025;-75
2022/06/18 07:42:57;;;;;;;1.67;1.30;;;27.20;71.80;;;;;;5019842;28;20429;-75
2022/06/18 07:45:25;;;;;;;6.97;1.70;;;27.40;70.40;;;;;;5014245;28;20044;-75
2022/06/18 07:47:52;;;;;;;3.88;1.40;;;27.50;69.40;;;;;;5020984;28;20033;-76
2022/06/18 07:50:20;;;;;;;3.47;1.40;;;27.70;69.50;;;;;;5011227;28;20322;-76
2022/06/18 07:52:46;;;;;;;1.90;1.50;;;27.80;69.20;;;;;;5010305;28;20026;-76
2022/06/18 07:55:20;;;;;;;3.85;1.38;;;28.00;69.20;;;;;;5024499;28;20157;-76
2022/06/18 07:57:46;;;;;;;1.20;1.10;;;28.10;68.30;;;;;;5010411;28;20494;-75
2022/06/18 08:00:16;;;;;;;2.67;1.60;;;28.20;68.20;;;;;;5008512;28;20661;-75
2022/06/18 08:02:42;;;;;;;4.93;1.40;;;28.40;67.90;;;;;;5010404;28;20390;-75
2022/06/18 08:05:11;;;;;;;2.15;1.30;;;28.50;68.40;;;;;;5009443;28;20034;-75
2022/06/18 08:07:36;;;;;;;2.80;1.30;;;28.60;67.30;;;;;;5021098;28;20075;-75
2022/06/18 08:10:02;;;;;;;3.17;1.35;;;28.70;67.60;;;;;;5027240;28;20482;-75
2022/06/18 08:12:29;;;;;;;2.90;1.40;;;28.80;66.40;;;;;;5022066;28;20037;-75
2022/06/18 08:14:55;;;;;;;1.42;1.33;;;28.90;67.40;;;;;;5009680;28;20033;-75
2022/06/18 08:17:20;;;;;;;2.22;1.38;;;29.00;67.00;;;;;;5027341;28;20026;-75
2022/06/18 08:19:46;;;;;;;5.53;1.50;;;29.10;67.40;;;;;;5019873;28;20104;-75
2022/06/18 08:22:11;;;;;;;2.05;1.60;;;29.20;66.70;;;;;;5013245;28;20064;-75
2022/06/18 08:24:37;;;;;;;2.63;1.30;;;29.30;66.30;;;;;;5009725;28;20394;-76
2022/06/18 08:27:03;;;;;;;4.22;1.45;;;29.40;68.90;;;;;;5024601;28;20120;-76
2022/06/18 08:29:30;;;;;;;3.35;1.40;;;29.40;66.30;;;;;;5021646;28;20494;-76
2022/06/18 08:31:56;;;;;;;3.10;1.70;;;29.60;83.00;;;;;;5017308;28;20076;-75
2022/06/18 08:34:21;;;;;;;1.88;1.30;;;29.70;81.20;;;;;;5021986;28;20065;-75
2022/06/18 08:36:47;;;;;;;3.20;1.60;;;29.80;80.00;;;;;;5023090;28;20068;-75
2022/06/18 08:39:13;;;;;;;6.47;1.52;;;;;;;;;;5025874;28;20029;-73
2022/06/18 08:41:49;;;;;;;5.88;1.73;;;30.00;63.70;;;;;;5025251;28;22836;-74
2022/06/18 08:44:29;;;;;;;4.57;1.65;;;30.10;70.90;;;;;;5029011;28;20100;-74
2022/06/18 08:47:16;;;;;;;3.38;1.30;;;30.10;69.30;;;;;;5022734;28;20053;-74
2022/06/18 08:50:06;;;;;;;5.60;1.60;;;30.30;68.40;;;;;;5018349;28;20025;-74
2022/06/18 08:53:08;;;;;;;7.53;1.60;;;30.30;65.20;;;;;;5020212;28;20075;-74
2022/06/18 08:55:48;;;;;;;3.20;1.20;;;30.40;62.80;;;;;;5026645;28;20036;-74
2022/06/18 08:58:21;;;;;;;4.68;1.60;;;30.40;62.60;;;;;;5020230;28;20512;-74
2022/06/18 09:00:49;;;;;;;4.70;1.40;;;30.60;63.40;;;;;;5028555;28;20048;-75
2022/06/18 09:03:22;;;;;;;5.57;1.70;;;30.80;63.40;;;;;;5027625;28;20053;-76
2022/06/18 09:06:10;;;;;;;10.48;1.70;;;30.80;62.30;;;;;;5023960;28;20025;-77
2022/06/18 09:08:42;;;;;;;5.43;1.58;;;30.90;62.10;;;;;;5009312;28;20088;-77
2022/06/18 09:11:29;;;;;;;2.85;1.58;;;31.10;62.40;;;;;;5014757;28;20041;-75
2022/06/18 09:13:59;;;;;;;3.92;1.77;;;31.20;61.50;;;;;;5018892;28;20026;-74
2022/06/18 09:16:37;;;;;;;2.67;1.55;;;31.40;60.30;;;;;;5018571;28;20074;-73
2022/06/18 09:19:08;;;;;;;6.43;1.80;;;31.50;59.90;;;;;;5023756;28;20029;-73
2022/06/18 09:21:46;;;;;;;5.28;1.65;;;31.60;59.50;;;;;;5013322;28;20037;-75
2022/06/18 09:24:18;;;;;;;8.40;1.73;;;31.60;59.10;;;;;;5011731;28;20077;-75
2022/06/18 09:26:50;;;;;;;8.05;1.40;;;31.70;59.00;;;;;;5021682;28;20441;-74
2022/06/18 09:29:34;;;;;;;5.43;1.60;;;31.70;58.90;;;;;;5026333;28;20029;-75
2022/06/18 09:32:12;;;;;;;5.78;2.10;;;31.70;58.40;;;;;;5019413;28;20040;-74
2022/06/18 09:34:50;;;;;;;9.45;1.98;;;31.80;59.40;;;;;;5028416;28;20042;-74
2022/06/18 09:37:21;;;;;;;6.22;1.70;;;31.90;58.90;;;;;;5027986;28;20060;-73
2022/06/18 09:39:52;;;;;;;7.25;1.80;;;32.00;58.30;;;;;;5007136;28;20442;-73
2022/06/18 09:42:24;;;;;;;5.78;1.70;;;31.90;58.40;;;;;;5021038;28;20477;-73
2022/06/18 09:44:59;;;;;;;7.07;1.60;;;32.00;57.80;;;;;;5028651;28;20179;-73
2022/06/18 09:47:46;;;;;;;4.03;1.58;;;32.00;57.30;;;;;;5027633;28;20029;-73
2022/06/18 09:50:21;;;;;;;6.70;1.70;;;32.00;57.30;;;;;;5022269;28;20040;-74
2022/06/18 09:52:52;;;;;;;6.22;2.00;;;32.00;57.40;;;;;;5024669;28;20042;-74
2022/06/18 09:55:33;;;;;;;8.68;1.83;;;32.10;56.40;;;;;;5017645;28;20513;-74
2022/06/18 09:58:00;;;;;;;5.15;1.90;;;32.20;57.30;;;;;;5011202;28;20045;-74
2022/06/18 10:00:30;;;;;;;7.35;1.85;;;32.30;56.20;;;;;;5022002;28;20402;-74
2022/06/18 10:02:57;;;;;;;8.05;1.90;;;32.30;56.80;;;;;;5026708;28;20501;-74
2022/06/18 10:08:18;;;;;;;8.52;1.90;;;32.50;57.20;;;;;;5013754;28;20452;-74
2022/06/18 10:10:52;;;;;;;7.13;1.80;;;32.50;55.90;;;;;;5021901;28;20032;-74
2022/06/18 10:13:24;;;;;;;7.30;1.73;;;32.60;56.60;;;;;;5016631;28;20045;-74
2022/06/18 10:15:50;;;;;;;12.43;1.80;;;32.50;56.40;;;;;;5027448;28;20108;-74
2022/06/18 10:18:39;;;;;;;6.97;1.98;;;32.60;56.40;;;;;;5025640;28;20104;-74
2022/06/18 10:21:18;;;;;;;11.50;1.90;;;32.70;56.10;;;;;;5022313;28;20036;-74
2022/06/18 10:23:58;;;;;;;11.77;2.25;;;32.80;54.80;;;;;;5023522;28;20432;-74
2022/06/18 10:26:32;;;;;;;6.63;2.08;;;32.80;55.30;;;;;;5027305;28;20084;-74
2022/06/18 10:29:13;;;;;;;5.45;1.80;;;32.80;55.70;;;;;;5021212;28;20403;-74
2022/06/18 10:31:44;;;;;;;4.82;1.83;;;32.90;55.60;;;;;;5024559;28;20120;-74
2022/06/18 10:34:45;;;;;;;7.80;2.30;;;33.00;55.70;;;;;;5025120;28;20357;-73
2022/06/18 10:37:49;;;;;;;13.25;2.53;;;33.10;54.90;;;;;;5026278;28;20076;-74
2022/06/18 10:40:20;;;;;;;5.60;2.00;;;33.20;55.10;;;;;;4940470;28;20038;-74
2022/06/18 10:43:12;;;;;;;8.52;1.88;;;33.40;55.10;;;;;;5016536;28;20033;-74
2022/06/18 10:45:44;;;;;;;11.88;2.05;;;33.40;55.30;;;;;;5010570;28;20029;-74
2022/06/18 10:48:16;;;;;;;8.05;2.10;;;33.60;55.10;;;;;;5023617;28;20025;-74
2022/06/18 10:50:48;;;;;;;8.88;1.98;;;33.70;54.80;;;;;;5013511;28;20116;-74
2022/06/18 10:53:17;;;;;;;7.45;2.05;;;33.70;54.20;;;;;;5025138;28;20037;-74
2022/06/18 10:55:44;;;;;;;9.93;2.25;;;33.80;53.20;;;;;;5007671;28;20029;-74
2022/06/18 10:58:16;;;;;;;10.52;2.10;;;33.80;53.30;;;;;;5022826;28;20037;-73
2022/06/18 11:00:58;;;;;;;11.18;2.47;;;33.80;53.40;;;;;;5025854;28;20091;-74
2022/06/18 11:03:30;;;;;;;8.07;2.00;;;33.80;53.80;;;;;;5016516;28;20516;-74
2022/06/18 11:05:57;;;;;;;8.57;2.10;;;33.70;53.70;;;;;;5023857;28;20039;-74
2022/06/18 11:08:27;;;;;;;9.70;2.40;;;33.70;53.30;;;;;;5022897;28;20612;-74
2022/06/18 11:11:03;;;;;;;10.32;2.00;;;33.60;53.30;;;;;;5026440;28;20052;-74
2022/06/18 11:13:35;;;;;;;9.32;2.30;;;33.60;53.90;;;;;;5023344;28;20037;-74
2022/06/18 11:16:17;;;;;;;10.27;2.22;;;33.60;53.20;;;;;;5015034;28;20482;-74
2022/06/18 11:18:47;;;;;;;11.70;2.27;;;33.60;53.50;;;;;;5024417;28;20507;-74
2022/06/18 11:21:22;;;;;;;10.95;2.10;;;33.60;54.10;;;;;;5025609;28;20033;-74
2022/06/18 11:24:11;;;;;;;12.50;2.30;;;33.60;53.80;;;;;;5013788;28;20034;-74
2022/06/18 11:26:57;;;;;;;11.20;2.30;;;33.80;54.00;;;;;;5022270;28;20026;-74
2022/06/18 11:29:33;;;;;;;13.73;2.63;;;34.10;52.90;;;;;;5015697;28;20505;-74
2022/06/18 11:32:20;;;;;;;13.05;2.50;;;34.30;52.80;;;;;;5009808;28;20184;-74
2022/06/18 11:34:50;;;;;;;12.55;2.40;;;34.50;52.10;;;;;;5021954;28;20385;-74
2022/06/18 11:37:26;;;;;;;14.23;2.42;;;34.60;50.70;;;;;;5018657;28;20029;-74
2022/06/18 11:40:03;;;;;;;15.93;2.58;;;34.70;50.90;;;;;;5016616;28;20520;-74
2022/06/18 11:42:50;;;;;;;13.95;2.55;;;34.70;51.30;;;;;;5020746;28;20033;-74
2022/06/18 11:45:31;;;;;;;15.35;2.40;;;34.80;51.60;;;;;;5009428;28;20045;-74
2022/06/18 11:48:12;;;;;;;9.48;2.50;;;34.80;50.80;;;;;;5021153;28;20481;-74
2022/06/18 11:50:51;;;;;;;12.32;2.30;;;34.90;51.90;;;;;;5020064;28;20034;-73
2022/06/18 11:53:26;;;;;;;13.02;2.78;;;34.90;51.30;;;;;;5019037;28;20045;-74
2022/06/18 11:55:56;;;;;;;13.45;2.60;;;35.00;50.90;;;;;;5021186;28;20026;-74
2022/06/18 11:58:47;;;;;;;10.77;2.40;;;35.00;50.20;;;;;;5007666;28;20041;-74
2022/06/18 12:01:37;;;;;;;10.65;2.78;;;35.00;50.30;;;;;;5013133;28;20034;-74
2022/06/18 12:04:12;;;;;;;9.05;2.50;;;35.00;50.50;;;;;;5011832;28;20057;-74
2022/06/18 12:06:51;;;;;;;15.10;3.03;;;35.00;50.90;;;;;;5021810;28;20425;-73
2022/06/18 12:09:17;;;;;;;14.40;2.38;;;35.10;51.60;;;;;;5019117;28;20030;-74
2022/06/18 12:12:04;;;;;;;9.82;2.50;;;35.10;49.80;;;;;;5020767;28;20071;-74
2022/06/18 12:14:45;;;;;;;8.90;2.58;;;35.10;50.70;;;;;;5022738;28;20030;-74
2022/06/18 12:17:32;;;;;;;15.95;2.63;;;35.10;50.70;;;;;;5020143;28;20148;-73
2022/06/18 12:20:07;;;;;;;12.38;2.35;;;35.20;49.70;;;;;;5020717;28;20028;-74
2022/06/18 12:22:58;;;;;;;17.70;2.53;;;35.10;50.70;;;;;;5019942;28;20028;-74
2022/06/18 12:25:38;;;;;;;16.00;2.67;;;35.20;50.60;;;;;;5024383;28;20059;-74
2022/06/18 12:28:10;;;;;;;12.27;2.53;;;35.20;50.50;;;;;;5021586;28;20036;-74
2022/06/18 12:30:59;;;;;;;9.70;2.33;;;35.20;50.30;;;;;;5022581;28;20057;-74
2022/06/18 12:34:02;;;;;;;9.98;2.00;;;35.20;49.30;;;;;;5014809;28;20501;-74
2022/06/18 12:36:42;;;;;;;10.25;2.35;;;35.30;49.90;;;;;;5026568;28;20120;-74
2022/06/18 12:39:11;;;;;;;12.50;2.50;;;35.40;51.20;;;;;;5025204;28;20037;-75
2022/06/18 12:42:04;;;;;;;8.95;2.28;;;35.50;50.20;;;;;;5013841;28;20214;-73
2022/06/18 12:44:32;;;;;;;9.85;2.22;;;35.50;50.30;;;;;;5027089;28;20549;-74
2022/06/18 12:47:07;;;;;;;11.73;2.33;;;35.50;49.90;;;;;;5031065;28;20774;-75
2022/06/18 12:49:59;;;;;;;10.60;2.42;;;35.50;50.60;;;;;;5022848;28;20044;-73
2022/06/18 12:52:44;;;;;;;8.73;2.03;;;35.50;51.40;;;;;;5029845;28;20030;-74
2022/06/18 12:55:38;;;;;;;10.38;2.42;;;35.60;50.10;;;;;;5024258;28;20034;-73
2022/06/18 12:58:20;;;;;;;11.20;2.50;;;35.60;50.40;;;;;;5021898;28;20490;-73
2022/06/18 13:00:59;;;;;;;8.43;2.30;;;35.60;49.80;;;;;;5028032;28;20621;-73
2022/06/18 13:03:38;;;;;;;11.48;2.40;;;35.50;49.90;;;;;;5022479;28;20030;-74
2022/06/18 13:06:30;;;;;;;11.10;2.35;;;35.40;50.20;;;;;;5014450;28;20145;-73
2022/06/18 13:09:01;;;;;;;12.38;2.40;;;35.40;49.20;;;;;;5023984;28;20268;-73
2022/06/18 13:11:50;;;;;;;11.13;2.47;;;35.50;49.60;;;;;;5023965;28;20064;-73
2022/06/18 13:14:43;;;;;;;14.88;2.53;;;35.40;49.30;;;;;;5010099;28;20029;-75
2022/06/18 13:17:19;;;;;;;11.02;2.53;;;35.50;49.90;;;;;;5027104;28;20409;-73
2022/06/18 13:19:50;;;;;;;11.63;2.53;;;35.50;49.90;;;;;;4323430;28;10001289;-74